createdAt,value
2018-12-03T00:00:04.986Z,4.43
2018-12-03T00:05:19.254Z,3.53
2018-12-03T00:07:47.209Z,4.43
2018-12-03T00:10:15.193Z,3.90
2018-12-03T00:12:43.065Z,8.23
2018-12-03T00:15:10.964Z,5.67
2018-12-03T00:17:38.965Z,5.30
2018-12-03T00:20:07.882Z,4.03
2018-12-03T00:22:35.918Z,3.13
2018-12-03T00:25:04.021Z,4.20
2018-12-03T00:27:31.990Z,5.07
2018-12-03T00:29:59.944Z,5.70
2018-12-03T00:32:27.921Z,4.43
2018-12-03T00:34:55.842Z,3.80
2018-12-03T00:37:24.386Z,3.67
2018-12-03T00:39:52.341Z,4.67
2018-12-03T00:42:20.332Z,3.90
2018-12-03T00:44:48.374Z,3.50
2018-12-03T00:47:16.345Z,3.53
2018-12-03T00:49:44.221Z,2.00
2018-12-03T00:52:12.085Z,2.40
2018-12-03T00:54:39.962Z,2.33
2018-12-03T00:57:07.829Z,0.80
2018-12-03T00:59:35.969Z,1.47
2018-12-03T01:02:03.981Z,1.23
2018-12-03T01:04:31.841Z,2.77
2018-12-03T01:06:59.706Z,1.60
2018-12-03T01:09:27.622Z,1.57
2018-12-03T01:11:55.691Z,2.77
2018-12-03T01:14:23.586Z,1.80
2018-12-03T01:16:51.547Z,0.80
2018-12-03T01:19:19.505Z,1.77
2018-12-03T01:21:47.369Z,1.63
2018-12-03T01:24:15.229Z,3.03
2018-12-03T01:26:44.539Z,0.77
2018-12-03T01:29:12.401Z,1.60
2018-12-03T01:31:40.309Z,2.83
2018-12-03T01:34:08.282Z,0.63
2018-12-03T01:36:36.154Z,2.63
2018-12-03T01:39:06.635Z,1.43
2018-12-03T01:41:34.618Z,1.17
2018-12-03T01:44:02.494Z,1.10
2018-12-03T01:46:30.474Z,1.93
2018-12-03T01:48:58.333Z,0.37
2018-12-03T01:51:27.750Z,3.20
2018-12-03T01:53:55.697Z,1.20
2018-12-03T01:56:23.576Z,0.83
2018-12-03T01:58:51.454Z,0.97
2018-12-03T02:01:19.367Z,0.30
2018-12-03T02:03:47.265Z,0.60
2018-12-03T02:06:15.221Z,1.10
2018-12-03T02:08:43.368Z,2.50
2018-12-03T02:11:11.739Z,0.20
2018-12-03T02:13:39.641Z,2.37
2018-12-03T02:16:07.625Z,1.53
2018-12-03T02:18:35.493Z,0.53
2018-12-03T02:21:03.391Z,1.80
2018-12-03T02:23:31.865Z,0.90
2018-12-03T02:25:59.720Z,1.37
2018-12-03T02:28:27.586Z,0.20
2018-12-03T02:30:55.454Z,1.03
2018-12-03T02:33:23.313Z,1.37
2018-12-03T02:35:51.742Z,2.07
2018-12-03T02:38:19.703Z,1.80
2018-12-03T02:40:48.846Z,2.03
2018-12-03T02:43:16.728Z,0.50
2018-12-03T02:45:44.669Z,0.43
2018-12-03T02:48:12.653Z,0.90
2018-12-03T02:50:40.606Z,1.20
2018-12-03T02:53:08.573Z,1.50
2018-12-03T02:55:36.473Z,1.93
2018-12-03T02:58:04.575Z,1.40
2018-12-03T03:00:36.804Z,1.20
2018-12-03T03:03:04.702Z,2.50
2018-12-03T03:05:32.568Z,1.73
2018-12-03T03:08:00.445Z,1.33
2018-12-03T03:10:28.367Z,1.13
2018-12-03T03:12:56.445Z,0.93
2018-12-03T03:15:24.418Z,1.23
2018-12-03T03:17:52.280Z,1.13
2018-12-03T03:20:20.254Z,1.33
2018-12-03T03:22:48.305Z,0.97
2018-12-03T03:25:16.203Z,1.23
2018-12-03T03:27:44.990Z,2.20
2018-12-03T03:30:13.338Z,0.97
2018-12-03T03:32:41.542Z,1.10
2018-12-03T03:35:09.964Z,1.30
2018-12-03T03:37:37.843Z,1.63
2018-12-03T03:40:07.950Z,2.53
2018-12-03T03:42:35.847Z,2.67
2018-12-03T03:45:04.337Z,2.03
2018-12-03T03:47:32.209Z,1.57
2018-12-03T03:50:00.174Z,2.40
2018-12-03T03:52:28.038Z,1.67
2018-12-03T03:54:55.894Z,6.93
2018-12-03T03:57:23.873Z,0.60
2018-12-03T03:59:51.739Z,2.47
2018-12-03T04:02:19.597Z,0.63
2018-12-03T04:04:47.538Z,0.90
2018-12-03T04:07:15.410Z,1.23
2018-12-03T04:09:43.333Z,2.70
2018-12-03T04:12:17.766Z,0.80
2018-12-03T04:14:45.622Z,1.03
2018-12-03T04:17:13.559Z,2.47
2018-12-03T04:19:42.292Z,6.50
2018-12-03T04:22:10.223Z,2.70
2018-12-03T04:24:38.122Z,1.77
2018-12-03T04:27:06.062Z,2.27
2018-12-03T04:29:34.017Z,2.17
2018-12-03T04:32:01.906Z,3.00
2018-12-03T04:34:29.785Z,1.87
2018-12-03T04:36:57.730Z,4.73
2018-12-03T04:39:25.585Z,2.40
2018-12-03T04:41:53.457Z,4.27
2018-12-03T04:44:21.333Z,3.37
2018-12-03T04:46:49.200Z,3.80
2018-12-03T04:49:17.077Z,3.33
2018-12-03T04:51:46.503Z,3.23
2018-12-03T04:54:14.434Z,3.07
2018-12-03T04:56:42.403Z,3.17
2018-12-03T04:59:11.026Z,4.00
2018-12-03T05:01:38.902Z,3.83
2018-12-03T05:04:06.846Z,4.07
2018-12-03T05:06:34.730Z,3.43
2018-12-03T05:09:02.708Z,3.20
2018-12-03T05:11:30.576Z,1.83
2018-12-03T05:13:58.502Z,1.53
2018-12-03T05:16:26.502Z,3.23
2018-12-03T05:18:54.366Z,2.77
2018-12-03T05:21:22.302Z,2.83
2018-12-03T05:23:50.169Z,3.37
2018-12-03T05:26:18.051Z,5.83
2018-12-03T05:28:46.001Z,5.10
2018-12-03T05:31:13.869Z,5.07
2018-12-03T05:33:41.747Z,5.87
2018-12-03T05:36:09.626Z,5.47
2018-12-03T05:38:37.500Z,5.47
2018-12-03T05:41:05.551Z,6.47
2018-12-03T05:43:33.450Z,8.03
2018-12-03T05:46:01.305Z,10.07
2018-12-03T05:48:29.261Z,10.53
2018-12-03T05:50:57.225Z,12.77
2018-12-03T05:53:25.124Z,13.90
2018-12-03T05:55:52.995Z,10.90
2018-12-03T05:58:20.929Z,10.90
2018-12-03T06:00:48.838Z,9.43
2018-12-03T06:03:16.769Z,9.83
2018-12-03T06:05:44.646Z,7.07
2018-12-03T06:08:12.585Z,9.43
2018-12-03T06:10:40.482Z,6.23
2018-12-03T06:13:09.445Z,7.43
2018-12-03T06:15:37.336Z,6.50
2018-12-03T06:18:06.347Z,4.10
2018-12-03T06:20:34.317Z,5.40
2018-12-03T06:23:02.210Z,6.67
2018-12-03T06:25:30.112Z,3.87
2018-12-03T06:27:58.089Z,3.50
2018-12-03T06:30:27.350Z,3.70
2018-12-03T06:32:55.210Z,3.33
2018-12-03T06:35:23.126Z,3.57
2018-12-03T06:37:50.998Z,7.83
2018-12-03T06:40:19.485Z,5.33
2018-12-03T06:42:47.473Z,4.27
2018-12-03T06:45:15.938Z,5.83
2018-12-03T06:47:45.799Z,4.93
2018-12-03T06:50:13.701Z,4.93
2018-12-03T06:52:41.705Z,6.43
2018-12-03T06:55:09.983Z,7.30
2018-12-03T06:57:38.007Z,5.63
2018-12-03T07:00:12.681Z,9.13
2018-12-03T07:02:40.644Z,5.20
2018-12-03T07:05:09.210Z,7.60
2018-12-03T07:07:37.126Z,7.37
2018-12-03T07:10:09.617Z,6.37
2018-12-03T07:12:37.522Z,7.20
2018-12-03T07:15:06.586Z,9.07
2018-12-03T07:17:34.536Z,7.03
2018-12-03T07:20:02.610Z,7.70
2018-12-03T07:22:30.578Z,8.70
2018-12-03T07:24:58.472Z,8.70
2018-12-03T07:27:26.341Z,8.23
2018-12-03T07:29:54.217Z,8.70
2018-12-03T07:32:22.186Z,9.47
2018-12-03T07:34:50.134Z,7.07
2018-12-03T07:37:18.050Z,6.27
2018-12-03T07:39:45.992Z,8.43
2018-12-03T07:42:13.970Z,6.70
2018-12-03T07:44:41.841Z,4.73
2018-12-03T07:47:09.824Z,4.73
2018-12-03T07:49:37.887Z,7.80
2018-12-03T07:52:06.807Z,5.10
2018-12-03T07:54:34.834Z,6.23
2018-12-03T07:57:02.871Z,5.13
2018-12-03T07:59:30.958Z,5.33
2018-12-03T08:02:00.351Z,4.57
2018-12-03T08:04:28.275Z,5.17
2018-12-03T08:06:56.302Z,5.67
2018-12-03T08:09:24.353Z,5.23
2018-12-03T08:11:52.353Z,2.73
2018-12-03T08:14:20.241Z,4.27
2018-12-03T08:16:48.193Z,4.53
2018-12-03T08:19:16.281Z,4.83
2018-12-03T08:21:44.228Z,5.03
2018-12-03T08:24:12.834Z,2.60
2018-12-03T08:26:40.835Z,1.53
2018-12-03T08:29:08.711Z,4.67
2018-12-03T08:31:36.630Z,1.47
2018-12-03T08:34:04.849Z,3.70
2018-12-03T08:36:32.778Z,3.97
2018-12-03T08:39:00.645Z,4.63
2018-12-03T08:41:28.626Z,3.20
2018-12-03T08:43:56.566Z,3.33
2018-12-03T08:46:24.461Z,3.23
2018-12-03T08:48:52.425Z,3.80
2018-12-03T08:51:20.465Z,2.80
2018-12-03T08:53:48.501Z,3.20
2018-12-03T08:56:16.389Z,5.73
2018-12-03T08:58:45.114Z,2.17
2018-12-03T09:01:15.002Z,3.57
2018-12-03T09:03:43.676Z,5.47
2018-12-03T09:06:12.076Z,4.03
2018-12-03T09:08:39.965Z,1.97
2018-12-03T09:11:08.949Z,3.40
2018-12-03T09:13:36.910Z,5.47
2018-12-03T09:16:04.934Z,5.00
2018-12-03T09:18:33.402Z,3.30
2018-12-03T09:21:01.297Z,4.07
2018-12-03T09:23:29.180Z,5.97
2018-12-03T09:25:57.063Z,4.60
2018-12-03T09:28:25.494Z,4.23
2018-12-03T09:30:53.396Z,5.27
2018-12-03T09:33:22.745Z,3.23
2018-12-03T09:35:50.673Z,4.10
2018-12-03T09:38:18.549Z,4.70
2018-12-03T09:40:46.440Z,6.23
2018-12-03T09:43:14.384Z,4.77
2018-12-03T09:45:42.319Z,6.30
2018-12-03T09:48:10.229Z,4.53
2018-12-03T09:50:38.109Z,5.17
2018-12-03T09:53:06.087Z,3.87
2018-12-03T09:55:33.957Z,6.87
2018-12-03T09:58:10.297Z,2.90
2018-12-03T10:00:38.684Z,2.77
2018-12-03T10:03:08.486Z,2.30
2018-12-03T10:05:40.665Z,1.73
2018-12-03T10:08:08.573Z,2.07
2018-12-03T10:10:36.433Z,5.87
2018-12-03T10:13:05.486Z,4.40
2018-12-03T10:15:33.417Z,2.20
2018-12-03T10:18:01.309Z,1.27
2018-12-03T10:20:29.185Z,1.67
2018-12-03T10:22:57.061Z,2.90
2018-12-03T10:25:25.021Z,1.83
2018-12-03T10:27:57.253Z,3.70
2018-12-03T10:30:25.143Z,1.60
2018-12-03T10:32:53.133Z,2.27
2018-12-03T10:35:21.012Z,2.47
2018-12-03T10:37:48.993Z,5.10
2018-12-03T10:40:17.636Z,4.40
2018-12-03T10:42:45.972Z,3.57
2018-12-03T10:45:14.802Z,3.30
2018-12-03T10:47:42.673Z,2.70
2018-12-03T10:50:15.477Z,3.87
2018-12-03T10:52:43.430Z,2.50
2018-12-03T10:55:11.561Z,4.70
2018-12-03T10:57:39.729Z,2.43
2018-12-03T11:00:11.610Z,4.40
2018-12-03T11:02:45.430Z,4.40
2018-12-03T11:05:18.955Z,3.53
2018-12-03T11:07:46.841Z,4.13
2018-12-03T11:10:14.730Z,5.50
2018-12-03T11:12:42.742Z,4.97
2018-12-03T11:15:13.834Z,4.90
2018-12-03T11:17:41.705Z,2.93
2018-12-03T11:20:09.617Z,4.43
2018-12-03T11:22:37.540Z,3.33
2018-12-03T11:25:07.449Z,2.50
2018-12-03T11:27:35.710Z,2.50
2018-12-03T11:30:04.437Z,6.10
2018-12-03T11:32:32.306Z,1.93
2018-12-03T11:35:05.741Z,2.23
2018-12-03T11:37:28.089Z,2.73
2018-12-03T11:39:58.557Z,1.80
2018-12-03T11:42:28.926Z,4.23
2018-12-03T11:44:56.893Z,2.30
2018-12-03T11:47:24.791Z,1.03
2018-12-03T11:49:52.757Z,2.83
2018-12-03T11:52:20.718Z,3.30
2018-12-03T11:54:48.589Z,1.63
2018-12-03T11:57:16.460Z,1.70
2018-12-03T11:59:44.417Z,1.27
2018-12-03T12:02:12.380Z,6.03
2018-12-03T12:04:40.838Z,3.20
2018-12-03T12:07:08.728Z,2.53
2018-12-03T12:09:36.619Z,3.60
2018-12-03T12:12:04.513Z,3.33
2018-12-03T12:14:32.381Z,4.23
2018-12-03T12:17:00.257Z,1.23
2018-12-03T12:19:28.176Z,1.27
2018-12-03T12:21:56.044Z,2.03
2018-12-03T12:24:24.009Z,1.03
2018-12-03T12:26:52.598Z,2.00
2018-12-03T12:29:20.490Z,1.73
2018-12-03T12:31:48.349Z,1.37
2018-12-03T12:34:16.213Z,2.57
2018-12-03T12:36:44.085Z,1.53
2018-12-03T12:39:11.998Z,2.37
2018-12-03T12:41:40.437Z,3.53
2018-12-03T12:44:09.249Z,0.33
2018-12-03T12:46:38.073Z,1.23
2018-12-03T12:49:06.226Z,1.03
2018-12-03T12:51:35.793Z,0.80
2018-12-03T12:54:03.852Z,1.33
2018-12-03T12:56:32.075Z,2.20
2018-12-03T12:59:00.856Z,0.87
2018-12-03T13:01:30.349Z,0.80
2018-12-03T13:03:59.463Z,1.07
2018-12-03T13:06:27.723Z,1.83
2018-12-03T13:09:03.222Z,2.60
2018-12-03T13:11:32.498Z,1.73
2018-12-03T13:14:00.374Z,1.33
2018-12-03T13:16:28.272Z,0.93
2018-12-03T13:18:56.882Z,1.27
2018-12-03T13:21:24.765Z,3.90
2018-12-03T13:23:52.814Z,4.60
2018-12-03T13:26:20.758Z,0.73
2018-12-03T13:28:48.625Z,2.10
2018-12-03T13:31:16.493Z,2.20
2018-12-03T13:33:44.357Z,1.40
2018-12-03T13:36:12.244Z,2.23
2018-12-03T13:38:40.136Z,2.37
2018-12-03T13:41:08.045Z,1.10
2018-12-03T13:43:35.921Z,1.03
2018-12-03T13:46:03.934Z,0.83
2018-12-03T13:48:31.876Z,0.93
2018-12-03T13:50:59.742Z,2.60
2018-12-03T13:53:27.617Z,1.03
2018-12-03T13:55:55.502Z,4.20
2018-12-03T13:58:23.369Z,3.60
2018-12-03T14:00:51.313Z,3.17
2018-12-03T14:03:20.618Z,3.23
2018-12-03T14:05:54.121Z,3.50
2018-12-03T14:10:28.594Z,3.07
2018-12-03T14:13:00.601Z,3.83
2018-12-03T14:15:43.346Z,4.30
2018-12-03T14:18:15.329Z,4.40
2018-12-03T14:20:44.457Z,2.80
2018-12-03T14:23:13.354Z,3.20
2018-12-03T14:25:41.225Z,2.77
2018-12-03T14:28:09.122Z,1.73
2018-12-03T14:30:37.006Z,2.53
2018-12-03T14:33:05.310Z,2.03
2018-12-03T14:35:33.215Z,2.80
2018-12-03T14:38:01.455Z,3.00
2018-12-03T14:40:29.370Z,3.47
2018-12-03T14:42:57.242Z,4.67
2018-12-03T14:45:25.178Z,2.23
2018-12-03T14:47:53.053Z,1.10
2018-12-03T14:50:21.017Z,2.40
2018-12-03T14:52:48.884Z,1.97
2018-12-03T14:55:16.750Z,6.50
2018-12-03T14:57:44.633Z,2.70
2018-12-03T15:00:13.838Z,5.10
2018-12-03T15:02:41.815Z,4.43
2018-12-03T15:05:11.800Z,2.00
2018-12-03T15:07:39.677Z,4.40
2018-12-03T15:10:08.038Z,2.37
2018-12-03T15:12:35.909Z,5.73
2018-12-03T15:15:04.639Z,1.73
2018-12-03T15:17:32.557Z,3.40
2018-12-03T15:22:34.751Z,2.17
2018-12-03T15:25:02.605Z,5.07
2018-12-03T15:27:30.573Z,3.87
2018-12-03T15:29:58.460Z,1.97
2018-12-03T15:32:26.326Z,1.13
2018-12-03T15:34:54.189Z,3.40
2018-12-03T15:37:22.699Z,4.17
2018-12-03T15:39:50.645Z,2.07
2018-12-03T15:42:18.609Z,2.00
2018-12-03T15:44:46.545Z,2.97
2018-12-03T15:47:14.475Z,3.57
2018-12-03T15:49:42.420Z,4.40
2018-12-03T15:52:10.293Z,4.60
2018-12-03T15:54:38.261Z,2.60
2018-12-03T15:57:06.169Z,3.57
2018-12-03T15:59:34.089Z,1.20
2018-12-03T16:02:01.989Z,3.47
2018-12-03T16:04:29.934Z,1.47
2018-12-03T16:06:57.901Z,2.33
2018-12-03T16:09:25.778Z,1.40
2018-12-03T16:11:54.657Z,4.17
2018-12-03T16:14:22.560Z,1.70
2018-12-03T16:16:50.429Z,3.00
2018-12-03T16:19:18.310Z,4.03
2018-12-03T16:21:46.178Z,5.30
2018-12-03T16:24:14.073Z,3.37
2018-12-03T16:26:41.973Z,3.70
2018-12-03T16:29:09.926Z,5.30
2018-12-03T16:31:37.913Z,3.07
2018-12-03T16:34:05.806Z,3.00
2018-12-03T16:36:33.725Z,4.47
2018-12-03T16:39:01.629Z,3.73
2018-12-03T16:41:29.506Z,3.77
2018-12-03T16:44:27.548Z,3.70
2018-12-03T16:46:54.971Z,4.90
2018-12-03T16:49:22.437Z,5.40
2018-12-03T16:51:50.914Z,5.07
2018-12-03T16:54:18.369Z,5.90
2018-12-03T16:56:45.866Z,5.27
2018-12-03T16:59:13.347Z,4.37
2018-12-03T17:01:40.853Z,5.63
2018-12-03T17:04:08.317Z,5.17
2018-12-03T17:06:35.798Z,6.67
2018-12-03T17:09:04.751Z,18.03
2018-12-03T17:11:32.167Z,8.20
2018-12-03T17:13:59.575Z,6.10
2018-12-03T17:16:27.079Z,7.37
2018-12-03T17:18:54.493Z,7.33
2018-12-03T17:21:22.050Z,9.63
2018-12-03T17:23:49.482Z,8.00
2018-12-03T17:26:16.889Z,7.10
2018-12-03T17:28:44.361Z,8.63
2018-12-03T17:31:11.834Z,9.50
2018-12-03T17:33:39.240Z,7.57
2018-12-03T17:36:06.761Z,7.67
2018-12-03T17:38:34.224Z,10.97
2018-12-03T17:41:01.938Z,10.00
2018-12-03T17:43:29.373Z,10.83
2018-12-03T17:45:56.778Z,11.33
2018-12-03T17:48:24.210Z,9.53
2018-12-03T17:50:51.708Z,10.87
2018-12-03T17:53:19.101Z,9.63
2018-12-03T17:55:46.578Z,12.27
2018-12-03T17:58:14.060Z,12.43
2018-12-03T18:00:41.529Z,11.40
2018-12-03T18:03:08.953Z,12.10
2018-12-03T18:05:36.385Z,18.07
2018-12-03T18:08:03.834Z,10.33
2018-12-03T18:10:31.245Z,11.13
2018-12-03T18:12:58.717Z,10.57
2018-12-03T18:15:26.115Z,9.53
2018-12-03T18:17:53.565Z,9.97
2018-12-03T18:20:20.969Z,10.90
2018-12-03T18:22:48.447Z,10.93
2018-12-03T18:25:15.926Z,11.23
2018-12-03T18:27:43.383Z,10.10
2018-12-03T18:30:10.854Z,10.50
2018-12-03T18:32:38.414Z,10.30
2018-12-03T18:35:05.864Z,12.60
2018-12-03T18:37:33.346Z,8.70
2018-12-03T18:40:00.814Z,5.47
2018-12-03T18:42:28.227Z,9.03
2018-12-03T18:44:56.921Z,8.90
2018-12-03T18:47:24.533Z,8.00
2018-12-03T18:49:52.005Z,6.87
2018-12-03T18:52:19.517Z,7.77
2018-12-03T18:54:46.980Z,6.33
2018-12-03T18:57:14.398Z,5.43
2018-12-03T18:59:41.801Z,4.33
2018-12-03T19:02:09.269Z,4.77
2018-12-03T19:04:36.726Z,3.67
2018-12-03T19:07:04.208Z,4.70
2018-12-03T19:09:32.525Z,7.70
2018-12-03T19:11:59.970Z,4.63
2018-12-03T19:14:27.554Z,5.50
2018-12-03T19:16:55.012Z,5.30
2018-12-03T19:19:22.491Z,5.47
2018-12-03T19:21:49.901Z,5.47
2018-12-03T19:24:17.323Z,5.33
2018-12-03T19:26:44.859Z,4.73
2018-12-03T19:29:12.274Z,4.90
2018-12-03T19:31:39.690Z,5.57
2018-12-03T19:34:07.094Z,5.17
2018-12-03T19:36:34.497Z,7.43
2018-12-03T19:39:01.917Z,6.20
2018-12-03T19:41:29.319Z,6.23
2018-12-03T19:43:56.722Z,6.27
2018-12-03T19:46:24.211Z,7.93
2018-12-03T19:48:51.686Z,8.03
2018-12-03T19:51:20.295Z,7.07
2018-12-03T19:53:47.741Z,7.87
2018-12-03T19:56:15.150Z,9.07
2018-12-03T19:58:42.625Z,7.43
2018-12-03T20:01:10.061Z,9.33
2018-12-03T20:03:37.469Z,11.73
2018-12-03T20:06:04.955Z,9.90
2018-12-03T20:08:32.351Z,11.53
2018-12-03T20:10:59.847Z,11.13
2018-12-03T20:13:27.359Z,15.07
2018-12-03T20:15:54.817Z,11.23
2018-12-03T20:18:22.240Z,8.90
2018-12-03T20:20:49.688Z,7.73
2018-12-03T20:23:17.181Z,9.90
2018-12-03T20:25:45.003Z,7.77
2018-12-03T20:28:13.197Z,8.33
2018-12-03T20:30:41.179Z,8.53
2018-12-03T20:33:08.642Z,8.67
2018-12-03T20:35:36.636Z,9.47
2018-12-03T20:38:04.165Z,7.00
2018-12-03T20:40:31.563Z,9.60
2018-12-03T20:42:59.199Z,6.27
2018-12-03T20:45:31.400Z,6.93
2018-12-03T20:47:58.799Z,6.73
2018-12-03T20:50:26.205Z,5.43
2018-12-03T20:52:53.606Z,4.73
2018-12-03T20:55:21.111Z,5.63
2018-12-03T20:57:48.593Z,5.03
2018-12-03T21:00:15.998Z,5.50
2018-12-03T21:02:43.505Z,4.43
2018-12-03T21:05:10.976Z,6.97
2018-12-03T21:07:38.406Z,3.97
2018-12-03T21:10:06.183Z,9.70
2018-12-03T21:12:33.678Z,4.00
2018-12-03T21:15:01.154Z,5.97
2018-12-03T21:17:28.642Z,3.50
2018-12-03T21:19:56.134Z,3.77
2018-12-03T21:22:23.533Z,4.90
2018-12-03T21:24:50.973Z,3.30
2018-12-03T21:27:18.425Z,5.00
2018-12-03T21:29:45.825Z,2.50
2018-12-03T21:32:13.278Z,3.83
2018-12-03T21:34:40.789Z,6.13
2018-12-03T21:37:08.261Z,4.17
2018-12-03T21:39:35.743Z,4.70
2018-12-03T21:42:03.197Z,3.90
2018-12-03T21:44:30.601Z,5.20
2018-12-03T21:46:58.023Z,4.20
2018-12-03T21:49:25.485Z,2.47
2018-12-03T21:51:54.053Z,2.77
2018-12-03T21:54:21.492Z,3.67
2018-12-03T21:56:48.897Z,3.57
2018-12-03T21:59:16.374Z,2.93
2018-12-03T22:01:43.777Z,3.60
2018-12-03T22:04:11.177Z,2.00
2018-12-03T22:06:38.579Z,3.63
2018-12-03T22:09:06.213Z,2.57
2018-12-03T22:11:33.750Z,5.23
2018-12-03T22:14:02.138Z,2.47
2018-12-03T22:16:29.633Z,3.80
2018-12-03T22:18:57.041Z,2.47
2018-12-03T22:21:24.545Z,2.70
2018-12-03T22:23:51.973Z,3.47
2018-12-03T22:26:19.445Z,2.70
2018-12-03T22:28:46.857Z,2.77
2018-12-03T22:31:14.270Z,6.43
2018-12-03T22:33:41.665Z,2.00
2018-12-03T22:36:09.110Z,4.50
2018-12-03T22:38:36.590Z,2.03
2018-12-03T22:41:03.992Z,4.67
2018-12-03T22:43:31.465Z,1.57
2018-12-03T22:45:58.868Z,5.13
2018-12-03T22:48:26.335Z,5.30
2018-12-03T22:50:53.885Z,4.23
2018-12-03T22:53:21.392Z,4.30
2018-12-03T22:55:48.806Z,4.80
2018-12-03T22:58:16.205Z,5.87
2018-12-03T23:00:45.677Z,2.43
2018-12-03T23:03:13.155Z,4.87
2018-12-03T23:05:40.621Z,7.23
2018-12-03T23:08:08.030Z,5.17
2018-12-03T23:10:35.521Z,4.57
2018-12-03T23:13:02.942Z,8.77
2018-12-03T23:15:30.408Z,5.67
2018-12-03T23:17:57.833Z,8.70
2018-12-03T23:20:25.233Z,5.83
2018-12-03T23:22:52.629Z,3.73
2018-12-03T23:25:20.039Z,6.23
2018-12-03T23:27:47.457Z,6.10
2018-12-03T23:30:14.881Z,6.57
2018-12-03T23:32:42.373Z,6.17
2018-12-03T23:35:09.881Z,6.57
2018-12-03T23:37:37.300Z,8.53
2018-12-03T23:40:04.857Z,6.33
2018-12-03T23:42:38.051Z,5.30
2018-12-03T23:45:05.505Z,5.63
2018-12-03T23:47:33.013Z,5.73
2018-12-03T23:50:00.424Z,5.17
2018-12-03T23:52:27.843Z,4.40
2018-12-03T23:54:55.283Z,5.03
2018-12-03T23:57:22.765Z,6.87
2018-12-03T23:59:50.201Z,5.23
